sensor_id;sensor_type;location;lat;lon;timestamp;pressure;altitude;pressure_sealevel;temperature;humidity
32298;BME280;18782;48.984;8.548;2024-01-11T00:00:41;101004.00;;;-4.42;99.51
32298;BME280;18782;48.984;8.548;2024-01-11T00:03:09;101002.72;;;-4.38;99.61
32298;BME280;18782;48.984;8.548;2024-01-11T00:05:36;100997.81;;;-4.37;98.67
32298;BME280;18782;48.984;8.548;2024-01-11T00:08:05;101001.66;;;-4.40;97.97
32298;BME280;18782;48.984;8.548;2024-01-11T00:10:34;100997.38;;;-4.41;98.58
32298;BME280;18782;48.984;8.548;2024-01-11T00:13:02;100999.56;;;-4.44;98.28
32298;BME280;18782;48.984;8.548;2024-01-11T00:15:30;101001.91;;;-4.46;98.48
32298;BME280;18782;48.984;8.548;2024-01-11T00:17:58;101001.72;;;-4.56;98.66
32298;BME280;18782;48.984;8.548;2024-01-11T00:20:26;101002.75;;;-4.63;100.00
32298;BME280;18782;48.984;8.548;2024-01-11T00:22:54;101009.41;;;-4.63;99.78
32298;BME280;18782;48.984;8.548;2024-01-11T00:25:21;101004.19;;;-4.65;99.64
32298;BME280;18782;48.984;8.548;2024-01-11T00:27:51;101008.94;;;-4.68;99.24
32298;BME280;18782;48.984;8.548;2024-01-11T00:30:18;101003.44;;;-4.73;99.88
32298;BME280;18782;48.984;8.548;2024-01-11T00:32:45;101010.09;;;-4.73;100.00
32298;BME280;18782;48.984;8.548;2024-01-11T00:35:13;101013.63;;;-4.71;99.24
32298;BME280;18782;48.984;8.548;2024-01-11T00:37:41;101006.28;;;-4.69;99.77
32298;BME280;18782;48.984;8.548;2024-01-11T00:40:09;101010.09;;;-4.73;99.83
32298;BME280;18782;48.984;8.548;2024-01-11T00:42:37;101009.34;;;-4.72;100.00
32298;BME280;18782;48.984;8.548;2024-01-11T00:45:07;101013.63;;;-4.71;99.98
32298;BME280;18782;48.984;8.548;2024-01-11T00:47:34;101015.13;;;-4.73;100.00
32298;BME280;18782;48.984;8.548;2024-01-11T00:50:03;101014.22;;;-4.74;99.29
32298;BME280;18782;48.984;8.548;2024-01-11T00:52:30;101008.59;;;-4.71;99.19
32298;BME280;18782;48.984;8.548;2024-01-11T00:54:58;101008.94;;;-4.68;98.50
32298;BME280;18782;48.984;8.548;2024-01-11T00:57:26;101012.19;;;-4.69;98.27
32298;BME280;18782;48.984;8.548;2024-01-11T00:59:54;101015.13;;;-4.73;98.41
32298;BME280;18782;48.984;8.548;2024-01-11T01:02:25;101013.91;;;-4.77;98.71
32298;BME280;18782;48.984;8.548;2024-01-11T01:04:52;101017.41;;;-4.83;99.81
32298;BME280;18782;48.984;8.548;2024-01-11T01:07:20;101018.91;;;-4.85;100.00
32298;BME280;18782;48.984;8.548;2024-01-11T01:09:48;101015.25;;;-4.96;99.81
32298;BME280;18782;48.984;8.548;2024-01-11T01:12:16;101014.63;;;-5.02;100.00
32298;BME280;18782;48.984;8.548;2024-01-11T01:14:44;101013.75;;;-5.03;100.00
32298;BME280;18782;48.984;8.548;2024-01-11T01:17:12;101008.72;;;-5.03;100.00
32298;BME280;18782;48.984;8.548;2024-01-11T01:19:44;101004.13;;;-5.07;100.00
32298;BME280;18782;48.984;8.548;2024-01-11T01:22:12;101009.88;;;-5.08;100.00
32298;BME280;18782;48.984;8.548;2024-01-11T01:24:39;101006.00;;;-5.13;100.00
32298;BME280;18782;48.984;8.548;2024-01-11T01:27:07;101011.03;;;-5.13;100.00
32298;BME280;18782;48.984;8.548;2024-01-11T01:29:35;101013.94;;;-5.17;100.00
32298;BME280;18782;48.984;8.548;2024-01-11T01:32:04;101018.97;;;-5.17;100.00
32298;BME280;18782;48.984;8.548;2024-01-11T01:34:31;101027.25;;;-5.18;100.00
32298;BME280;18782;48.984;8.548;2024-01-11T01:37:00;101026.19;;;-5.20;100.00
32298;BME280;18782;48.984;8.548;2024-01-11T01:39:28;101031.63;;;-5.24;100.00
32298;BME280;18782;48.984;8.548;2024-01-11T01:41:56;101037.53;;;-5.23;100.00
32298;BME280;18782;48.984;8.548;2024-01-11T01:44:23;101043.69;;;-5.29;100.00
32298;BME280;18782;48.984;8.548;2024-01-11T01:46:52;101036.56;;;-5.33;100.00
32298;BME280;18782;48.984;8.548;2024-01-11T01:49:20;101042.91;;;-5.36;100.00
32298;BME280;18782;48.984;8.548;2024-01-11T01:51:50;101046.88;;;-5.38;100.00
32298;BME280;18782;48.984;8.548;2024-01-11T01:54:20;101053.69;;;-5.37;100.00
32298;BME280;18782;48.984;8.548;2024-01-11T01:56:48;101056.91;;;-5.38;100.00
32298;BME280;18782;48.984;8.548;2024-01-11T01:59:16;101056.91;;;-5.38;100.00
32298;BME280;18782;48.984;8.548;2024-01-11T02:01:45;101056.41;;;-5.43;100.00
32298;BME280;18782;48.984;8.548;2024-01-11T02:04:12;101046.22;;;-5.44;100.00
32298;BME280;18782;48.984;8.548;2024-01-11T02:06:41;101046.63;;;-5.48;100.00
32298;BME280;18782;48.984;8.548;2024-01-11T02:09:12;101049.13;;;-5.48;100.00
32298;BME280;18782;48.984;8.548;2024-01-11T02:11:42;101047.06;;;-5.53;100.00
32298;BME280;18782;48.984;8.548;2024-01-11T02:14:10;101050.59;;;-5.51;100.00
32298;BME280;18782;48.984;8.548;2024-01-11T02:16:38;101044.69;;;-5.51;100.00
32298;BME280;18782;48.984;8.548;2024-01-11T02:19:07;101054.16;;;-5.48;100.00
32298;BME280;18782;48.984;8.548;2024-01-11T02:21:38;101056.38;;;-5.52;100.00
32298;BME280;18782;48.984;8.548;2024-01-11T02:24:07;101050.94;;;-5.47;100.00
32298;BME280;18782;48.984;8.548;2024-01-11T02:26:35;101052.56;;;-5.48;100.00
32298;BME280;18782;48.984;8.548;2024-01-11T02:29:03;101052.09;;;-5.53;100.00
32298;BME280;18782;48.984;8.548;2024-01-11T02:31:31;101051.75;;;-5.56;100.00
32298;BME280;18782;48.984;8.548;2024-01-11T02:33:59;101043.19;;;-5.58;100.00
32298;BME280;18782;48.984;8.548;2024-01-11T02:36:27;101044.88;;;-5.65;100.00
32298;BME280;18782;48.984;8.548;2024-01-11T02:38:55;101053.13;;;-5.66;100.00
32298;BME280;18782;48.984;8.548;2024-01-11T02:41:24;101055.78;;;-5.65;100.00
32298;BME280;18782;48.984;8.548;2024-01-11T02:43:53;101053.47;;;-5.63;100.00
32298;BME280;18782;48.984;8.548;2024-01-11T02:46:22;101053.13;;;-5.66;100.00
32298;BME280;18782;48.984;8.548;2024-01-11T02:48:49;101048.50;;;-5.70;100.00
32298;BME280;18782;48.984;8.548;2024-01-11T02:51:18;101046.00;;;-5.70;100.00
32298;BME280;18782;48.984;8.548;2024-01-11T02:53:46;101043.00;;;-5.75;100.00
32298;BME280;18782;48.984;8.548;2024-01-11T02:56:14;101044.63;;;-5.75;100.00
32298;BME280;18782;48.984;8.548;2024-01-11T02:58:43;101044.81;;;-5.74;100.00
32298;BME280;18782;48.984;8.548;2024-01-11T03:01:11;101040.91;;;-5.79;100.00
32298;BME280;18782;48.984;8.548;2024-01-11T03:03:39;101044.13;;;-5.80;100.00
32298;BME280;18782;48.984;8.548;2024-01-11T03:06:06;101031.44;;;-5.82;100.00
32298;BME280;18782;48.984;8.548;2024-01-11T03:08:35;101033.78;;;-5.83;100.00
32298;BME280;18782;48.984;8.548;2024-01-11T03:11:03;101035.56;;;-5.82;100.00
32298;BME280;18782;48.984;8.548;2024-01-11T03:13:31;101038.47;;;-5.86;100.00
32298;BME280;18782;48.984;8.548;2024-01-11T03:16:00;101032.03;;;-5.84;100.00
32298;BME280;18782;48.984;8.548;2024-01-11T03:18:27;101032.03;;;-5.84;100.00
32298;BME280;18782;48.984;8.548;2024-01-11T03:20:56;101027.00;;;-5.84;100.00
32298;BME280;18782;48.984;8.548;2024-01-11T03:23:24;101030.56;;;-5.82;100.00
32298;BME280;18782;48.984;8.548;2024-01-11T03:25:52;101022.88;;;-5.84;100.00
32298;BME280;18782;48.984;8.548;2024-01-11T03:28:19;101028.78;;;-5.83;100.00
32298;BME280;18782;48.984;8.548;2024-01-11T03:30:47;101022.94;;;-5.91;100.00
32298;BME280;18782;48.984;8.548;2024-01-11T03:33:16;101028.84;;;-5.90;100.00
32298;BME280;18782;48.984;8.548;2024-01-11T03:35:44;101030.63;;;-5.89;100.00
32298;BME280;18782;48.984;8.548;2024-01-11T03:38:12;101024.16;;;-5.87;100.00
32298;BME280;18782;48.984;8.548;2024-01-11T03:40:39;101029.91;;;-5.88;100.00
32298;BME280;18782;48.984;8.548;2024-01-11T03:43:07;101030.22;;;-5.85;100.00
32298;BME280;18782;48.984;8.548;2024-01-11T03:45:35;101031.69;;;-5.87;100.00
32298;BME280;18782;48.984;8.548;2024-01-11T03:48:03;101033.44;;;-5.95;100.00
32298;BME280;18782;48.984;8.548;2024-01-11T03:50:32;101031.31;;;-5.99;100.00
32298;BME280;18782;48.984;8.548;2024-01-11T03:53:00;101024.69;;;-5.98;100.00
32298;BME280;18782;48.984;8.548;2024-01-11T03:55:29;101018.59;;;-6.00;100.00
32298;BME280;18782;48.984;8.548;2024-01-11T03:57:56;101018.28;;;-6.03;100.00
32298;BME280;18782;48.984;8.548;2024-01-11T04:00:24;101018.59;;;-6.00;100.00
32298;BME280;18782;48.984;8.548;2024-01-11T04:02:52;101015.03;;;-6.02;100.00
32298;BME280;18782;48.984;8.548;2024-01-11T04:05:20;101022.56;;;-6.02;100.00
32298;BME280;18782;48.984;8.548;2024-01-11T04:07:49;101026.19;;;-6.08;100.00
32298;BME280;18782;48.984;8.548;2024-01-11T04:10:17;101016.81;;;-6.01;100.00
32298;BME280;18782;48.984;8.548;2024-01-11T04:12:45;101022.22;;;-6.06;100.00
32298;BME280;18782;48.984;8.548;2024-01-11T04:15:12;101016.16;;;-6.08;100.00
32298;BME280;18782;48.984;8.548;2024-01-11T04:17:40;101012.03;;;-6.07;100.00
32298;BME280;18782;48.984;8.548;2024-01-11T04:20:09;101017.94;;;-6.07;100.00
32298;BME280;18782;48.984;8.548;2024-01-11T04:22:36;101012.00;;;-6.00;100.00
32298;BME280;18782;48.984;8.548;2024-01-11T04:25:07;101021.94;;;-5.93;100.00
32298;BME280;18782;48.984;8.548;2024-01-11T04:27:35;101012.78;;;-5.92;100.00
32298;BME280;18782;48.984;8.548;2024-01-11T04:30:03;101010.28;;;-5.92;100.00
32298;BME280;18782;48.984;8.548;2024-01-11T04:32:30;101011.56;;;-5.96;100.00
32298;BME280;18782;48.984;8.548;2024-01-11T04:34:58;101013.91;;;-5.97;100.00
32298;BME280;18782;48.984;8.548;2024-01-11T04:37:26;101018.94;;;-5.97;100.00
32298;BME280;18782;48.984;8.548;2024-01-11T04:39:54;101021.28;;;-5.99;100.00
32298;BME280;18782;48.984;8.548;2024-01-11T04:42:23;101018.59;;;-6.00;100.00
32298;BME280;18782;48.984;8.548;2024-01-11T04:44:50;101014.41;;;-6.09;100.00
32298;BME280;18782;48.984;8.548;2024-01-11T04:47:18;101015.53;;;-6.14;100.00
32298;BME280;18782;48.984;8.548;2024-01-11T04:49:46;101024.09;;;-6.12;100.00
32298;BME280;18782;48.984;8.548;2024-01-11T04:52:13;101041.25;;;-6.08;100.00
32298;BME280;18782;48.984;8.548;2024-01-11T04:54:41;101037.34;;;-6.13;100.00
32298;BME280;18782;48.984;8.548;2024-01-11T04:57:09;101036.13;;;-6.16;100.00
32298;BME280;18782;48.984;8.548;2024-01-11T04:59:38;101035.56;;;-6.14;100.00
32298;BME280;18782;48.984;8.548;2024-01-11T05:02:06;101036.63;;;-6.12;100.00
32298;BME280;18782;48.984;8.548;2024-01-11T05:04:33;101037.19;;;-6.14;100.00
32298;BME280;18782;48.984;8.548;2024-01-11T05:07:01;101035.56;;;-6.14;100.00
32298;BME280;18782;48.984;8.548;2024-01-11T05:09:28;101036.63;;;-6.12;100.00
32298;BME280;18782;48.984;8.548;2024-01-11T05:11:56;101038.81;;;-6.15;100.00
32298;BME280;18782;48.984;8.548;2024-01-11T05:14:24;101043.47;;;-6.18;100.00
32298;BME280;18782;48.984;8.548;2024-01-11T05:16:53;101036.34;;;-6.22;100.00
32298;BME280;18782;48.984;8.548;2024-01-11T05:19:20;101042.09;;;-6.23;100.00
32298;BME280;18782;48.984;8.548;2024-01-11T05:21:48;101047.09;;;-6.23;100.00
32298;BME280;18782;48.984;8.548;2024-01-11T05:24:16;101044.28;;;-6.26;100.00
32298;BME280;18782;48.984;8.548;2024-01-11T05:26:43;101051.31;;;-6.31;100.00
32298;BME280;18782;48.984;8.548;2024-01-11T05:29:11;101055.44;;;-6.31;100.00
32298;BME280;18782;48.984;8.548;2024-01-11T05:31:39;101052.19;;;-6.30;100.00
32298;BME280;18782;48.984;8.548;2024-01-11T05:34:08;101060.75;;;-6.28;100.00
32298;BME280;18782;48.984;8.548;2024-01-11T05:36:38;101050.72;;;-6.28;100.00
32298;BME280;18782;48.984;8.548;2024-01-11T05:39:06;101061.09;;;-6.25;100.00
32298;BME280;18782;48.984;8.548;2024-01-11T05:41:34;101051.38;;;-6.22;100.00
32298;BME280;18782;48.984;8.548;2024-01-11T05:44:02;101059.63;;;-6.23;100.00
32298;BME280;18782;48.984;8.548;2024-01-11T05:46:31;101063.53;;;-6.18;100.00
32298;BME280;18782;48.984;8.548;2024-01-11T05:48:59;101061.41;;;-6.22;100.00
32298;BME280;18782;48.984;8.548;2024-01-11T05:51:28;101069.72;;;-6.30;100.00
32298;BME280;18782;48.984;8.548;2024-01-11T05:53:56;101065.25;;;-6.33;100.00
32298;BME280;18782;48.984;8.548;2024-01-11T05:56:24;101068.88;;;-6.38;100.00
32298;BME280;18782;48.984;8.548;2024-01-11T05:58:52;101075.19;;;-6.41;100.00
32298;BME280;18782;48.984;8.548;2024-01-11T06:01:19;101079.13;;;-6.43;100.00
32298;BME280;18782;48.984;8.548;2024-01-11T06:03:48;101079.78;;;-6.37;100.00
32298;BME280;18782;48.984;8.548;2024-01-11T06:06:15;101074.84;;;-6.44;100.00
32298;BME280;18782;48.984;8.548;2024-01-11T06:08:45;101074.50;;;-6.47;100.00
32298;BME280;18782;48.984;8.548;2024-01-11T06:11:12;101068.44;;;-6.26;100.00
32298;BME280;18782;48.984;8.548;2024-01-11T06:13:40;101070.44;;;-6.08;100.00
32298;BME280;18782;48.984;8.548;2024-01-11T06:16:08;101078.84;;;-5.92;100.00
32298;BME280;18782;48.984;8.548;2024-01-11T06:18:39;101079.75;;;-5.91;100.00
32298;BME280;18782;48.984;8.548;2024-01-11T06:21:07;101072.63;;;-5.95;100.00
32298;BME280;18782;48.984;8.548;2024-01-11T06:23:34;101076.44;;;-5.99;100.00
32298;BME280;18782;48.984;8.548;2024-01-11T06:26:03;101082.34;;;-5.98;100.00
32298;BME280;18782;48.984;8.548;2024-01-11T06:28:31;101083.13;;;-6.07;100.00
32298;BME280;18782;48.984;8.548;2024-01-11T06:31:02;101078.53;;;-6.11;100.00
32298;BME280;18782;48.984;8.548;2024-01-11T06:33:30;101075.31;;;-6.17;100.00
32298;BME280;18782;48.984;8.548;2024-01-11T06:35:59;101074.28;;;-6.19;100.00
32298;BME280;18782;48.984;8.548;2024-01-11T06:38:27;101092.88;;;-6.17;100.00
32298;BME280;18782;48.984;8.548;2024-01-11T06:40:54;101088.28;;;-6.21;100.00
32298;BME280;18782;48.984;8.548;2024-01-11T06:43:23;101085.44;;;-6.24;100.00
32298;BME280;18782;48.984;8.548;2024-01-11T06:45:51;101084.44;;;-5.31;100.00
32298;BME280;18782;48.984;8.548;2024-01-11T06:48:19;101087.00;;;-5.70;100.00
32298;BME280;18782;48.984;8.548;2024-01-11T06:50:47;101088.00;;;-5.92;100.00
32298;BME280;18782;48.984;8.548;2024-01-11T06:53:15;101097.75;;;-6.02;100.00
32298;BME280;18782;48.984;8.548;2024-01-11T06:55:43;101093.88;;;-6.08;100.00
32298;BME280;18782;48.984;8.548;2024-01-11T06:58:11;101106.97;;;-6.10;100.00
32298;BME280;18782;48.984;8.548;2024-01-11T07:00:40;101110.75;;;-6.14;100.00
32298;BME280;18782;48.984;8.548;2024-01-11T07:03:09;101104.00;;;-6.22;100.00
32298;BME280;18782;48.984;8.548;2024-01-11T07:05:37;101103.19;;;-6.29;100.00
32298;BME280;18782;48.984;8.548;2024-01-11T07:08:05;101109.81;;;-6.30;100.00
32298;BME280;18782;48.984;8.548;2024-01-11T07:10:33;101109.44;;;-6.26;100.00
32298;BME280;18782;48.984;8.548;2024-01-11T07:13:01;101112.34;;;-5.91;100.00
32298;BME280;18782;48.984;8.548;2024-01-11T07:15:28;101121.81;;;-5.73;100.00
32298;BME280;18782;48.984;8.548;2024-01-11T07:17:57;101131.41;;;-5.85;100.00
32298;BME280;18782;48.984;8.548;2024-01-11T07:20:25;101136.91;;;-5.96;100.00
32298;BME280;18782;48.984;8.548;2024-01-11T07:22:53;101139.84;;;-6.00;100.00
32298;BME280;18782;48.984;8.548;2024-01-11T07:25:21;101150.63;;;-6.08;100.00
32298;BME280;18782;48.984;8.548;2024-01-11T07:27:48;101152.91;;;-6.02;100.00
32298;BME280;18782;48.984;8.548;2024-01-11T07:30:16;101147.16;;;-6.01;100.00
32298;BME280;18782;48.984;8.548;2024-01-11T07:32:45;101144.66;;;-6.01;100.00
32298;BME280;18782;48.984;8.548;2024-01-11T07:35:14;101150.41;;;-6.02;100.00
32298;BME280;18782;48.984;8.548;2024-01-11T07:37:45;101153.97;;;-6.00;100.00
32298;BME280;18782;48.984;8.548;2024-01-11T07:40:12;101158.97;;;-6.00;100.00
32298;BME280;18782;48.984;8.548;2024-01-11T07:42:42;101162.22;;;-6.01;100.00
32298;BME280;18782;48.984;8.548;2024-01-11T07:45:10;101177.59;;;-5.98;100.00
32298;BME280;18782;48.984;8.548;2024-01-11T07:47:38;101176.88;;;-5.97;100.00
32298;BME280;18782;48.984;8.548;2024-01-11T07:50:07;101167.88;;;-5.95;100.00
32298;BME280;18782;48.984;8.548;2024-01-11T07:52:38;101171.03;;;-5.89;100.00
32298;BME280;18782;48.984;8.548;2024-01-11T07:55:09;101173.47;;;-5.82;100.00
32298;BME280;18782;48.984;8.548;2024-01-11T07:57:39;101192.50;;;-5.84;100.00
32298;BME280;18782;48.984;8.548;2024-01-11T08:00:08;101191.03;;;-5.82;100.00
32298;BME280;18782;48.984;8.548;2024-01-11T08:02:39;101189.03;;;-5.78;100.00
32298;BME280;18782;48.984;8.548;2024-01-11T08:05:08;101195.28;;;-5.74;100.00
32298;BME280;18782;48.984;8.548;2024-01-11T08:07:35;101198.25;;;-5.69;100.00
32298;BME280;18782;48.984;8.548;2024-01-11T08:10:06;101199.25;;;-5.60;100.00
32298;BME280;18782;48.984;8.548;2024-01-11T08:12:35;101212.28;;;-5.56;100.00
32298;BME280;18782;48.984;8.548;2024-01-11T08:15:03;101215.53;;;-5.57;100.00
32298;BME280;18782;48.984;8.548;2024-01-11T08:17:31;101207.63;;;-5.53;100.00
32298;BME280;18782;48.984;8.548;2024-01-11T08:19:59;101207.47;;;-5.38;100.00
32298;BME280;18782;48.984;8.548;2024-01-11T08:22:27;101212.09;;;-5.34;100.00
32298;BME280;18782;48.984;8.548;2024-01-11T08:25:00;101209.69;;;-5.26;100.00
32298;BME280;18782;48.984;8.548;2024-01-11T08:27:29;101208.69;;;-5.19;100.00
32298;BME280;18782;48.984;8.548;2024-01-11T08:29:56;101219.38;;;-5.13;100.00
32298;BME280;18782;48.984;8.548;2024-01-11T08:32:24;101215.59;;;-4.93;100.00
32298;BME280;18782;48.984;8.548;2024-01-11T08:34:57;101204.66;;;-4.78;100.00
32298;BME280;18782;48.984;8.548;2024-01-11T08:37:26;101197.75;;;-4.72;100.00
32298;BME280;18782;48.984;8.548;2024-01-11T08:39:53;101198.47;;;-4.57;100.00
32298;BME280;18782;48.984;8.548;2024-01-11T08:42:21;101209.50;;;-4.39;100.00
32298;BME280;18782;48.984;8.548;2024-01-11T08:44:50;101214.00;;;-4.28;100.00
32298;BME280;18782;48.984;8.548;2024-01-11T08:47:18;101203.66;;;-4.07;100.00
32298;BME280;18782;48.984;8.548;2024-01-11T08:49:46;101197.69;;;-3.91;100.00
32298;BME280;18782;48.984;8.548;2024-01-11T08:52:13;101206.03;;;-3.75;100.00
32298;BME280;18782;48.984;8.548;2024-01-11T08:54:41;101198.97;;;-3.71;97.46
32298;BME280;18782;48.984;8.548;2024-01-11T08:57:09;101213.03;;;-3.55;98.69
32298;BME280;18782;48.984;8.548;2024-01-11T08:59:36;101209.72;;;-3.38;98.42
32298;BME280;18782;48.984;8.548;2024-01-11T09:02:05;101210.19;;;-3.25;96.35
32298;BME280;18782;48.984;8.548;2024-01-11T09:04:43;101212.16;;;-2.97;98.57
32298;BME280;18782;48.984;8.548;2024-01-11T09:07:11;101216.63;;;-2.68;97.00
32298;BME280;18782;48.984;8.548;2024-01-11T09:09:39;101216.03;;;-2.40;93.53
32298;BME280;18782;48.984;8.548;2024-01-11T09:12:19;101202.63;;;-2.21;91.42
32298;BME280;18782;48.984;8.548;2024-01-11T09:14:46;101204.84;;;-2.07;90.72
32298;BME280;18782;48.984;8.548;2024-01-11T09:17:15;101210.88;;;-1.88;92.42
32298;BME280;18782;48.984;8.548;2024-01-11T09:19:43;101212.88;;;-1.66;90.88
32298;BME280;18782;48.984;8.548;2024-01-11T09:22:11;101215.75;;;-1.53;89.16
32298;BME280;18782;48.984;8.548;2024-01-11T09:24:39;101201.44;;;-1.35;88.28
32298;BME280;18782;48.984;8.548;2024-01-11T09:27:06;101203.41;;;-1.22;83.87
32298;BME280;18782;48.984;8.548;2024-01-11T09:29:34;101215.22;;;-1.04;84.97
32298;BME280;18782;48.984;8.548;2024-01-11T09:32:02;101213.50;;;-0.95;82.59
32298;BME280;18782;48.984;8.548;2024-01-11T09:34:31;101217.13;;;-0.83;83.35
32298;BME280;18782;48.984;8.548;2024-01-11T09:36:59;101223.16;;;-0.72;81.84
32298;BME280;18782;48.984;8.548;2024-01-11T09:39:27;101223.69;;;-0.47;79.75
32298;BME280;18782;48.984;8.548;2024-01-11T09:41:58;101224.75;;;-0.35;78.70
32298;BME280;18782;48.984;8.548;2024-01-11T09:44:26;101228.59;;;-0.30;77.56
32298;BME280;18782;48.984;8.548;2024-01-11T09:46:54;101229.06;;;-0.34;78.04
32298;BME280;18782;48.984;8.548;2024-01-11T09:49:22;101222.50;;;-0.32;78.62
32298;BME280;18782;48.984;8.548;2024-01-11T09:51:52;101224.06;;;-0.23;78.60
32298;BME280;18782;48.984;8.548;2024-01-11T09:54:23;101234.56;;;0.00;76.94
32298;BME280;18782;48.984;8.548;2024-01-11T09:56:53;101224.59;;;-0.17;74.72
32298;BME280;18782;48.984;8.548;2024-01-11T09:59:23;101230.19;;;-0.11;75.32
32298;BME280;18782;48.984;8.548;2024-01-11T10:01:51;101227.84;;;-0.47;75.33
32298;BME280;18782;48.984;8.548;2024-01-11T10:04:20;101227.19;;;-0.36;76.89
32298;BME280;18782;48.984;8.548;2024-01-11T10:06:48;101220.34;;;-0.08;76.98
32298;BME280;18782;48.984;8.548;2024-01-11T10:09:19;101212.34;;;0.16;77.92
32298;BME280;18782;48.984;8.548;2024-01-11T10:11:46;101207.28;;;0.16;75.58
32298;BME280;18782;48.984;8.548;2024-01-11T10:14:15;101204.53;;;0.34;76.05
32298;BME280;18782;48.984;8.548;2024-01-11T10:16:43;101200.78;;;0.59;73.31
32298;BME280;18782;48.984;8.548;2024-01-11T10:19:12;101199.03;;;0.78;72.48
32298;BME280;18782;48.984;8.548;2024-01-11T10:21:42;101195.72;;;0.80;72.60
32298;BME280;18782;48.984;8.548;2024-01-11T10:24:10;101196.47;;;0.68;73.01
32298;BME280;18782;48.984;8.548;2024-01-11T10:26:45;101197.47;;;0.60;72.57
32298;BME280;18782;48.984;8.548;2024-01-11T10:29:13;101191.16;;;0.86;72.68
32298;BME280;18782;48.984;8.548;2024-01-11T10:31:41;101194.44;;;1.15;71.47
32298;BME280;18782;48.984;8.548;2024-01-11T10:34:09;101189.47;;;1.37;71.59
32298;BME280;18782;48.984;8.548;2024-01-11T10:36:36;101185.75;;;1.44;69.18
32298;BME280;18782;48.984;8.548;2024-01-11T10:39:04;101199.22;;;1.43;68.87
32298;BME280;18782;48.984;8.548;2024-01-11T10:41:39;101204.00;;;1.50;70.06
32298;BME280;18782;48.984;8.548;2024-01-11T10:44:16;101208.56;;;1.54;68.54
32298;BME280;18782;48.984;8.548;2024-01-11T10:46:45;101207.28;;;1.91;67.15
32298;BME280;18782;48.984;8.548;2024-01-11T10:49:17;101200.66;;;2.25;66.63
32298;BME280;18782;48.984;8.548;2024-01-11T10:51:50;101207.09;;;2.54;66.32
32298;BME280;18782;48.984;8.548;2024-01-11T10:54:21;101202.47;;;2.94;63.58
32298;BME280;18782;48.984;8.548;2024-01-11T10:56:49;101205.31;;;3.20;62.21
32298;BME280;18782;48.984;8.548;2024-01-11T10:59:20;101209.41;;;3.30;60.43
32298;BME280;18782;48.984;8.548;2024-01-11T11:01:52;101212.50;;;3.37;60.85
32298;BME280;18782;48.984;8.548;2024-01-11T11:04:22;101210.53;;;3.57;60.35
32298;BME280;18782;48.984;8.548;2024-01-11T11:06:50;101199.22;;;3.88;58.78
32298;BME280;18782;48.984;8.548;2024-01-11T11:09:18;101201.16;;;4.16;57.58
32298;BME280;18782;48.984;8.548;2024-01-11T11:11:47;101190.47;;;4.33;57.72
32298;BME280;18782;48.984;8.548;2024-01-11T11:14:15;101198.50;;;4.76;56.91
32298;BME280;18782;48.984;8.548;2024-01-11T11:16:45;101193.47;;;5.03;56.66
32298;BME280;18782;48.984;8.548;2024-01-11T11:19:14;101198.53;;;5.41;55.55
32298;BME280;18782;48.984;8.548;2024-01-11T11:21:42;101191.47;;;5.50;54.50
32298;BME280;18782;48.984;8.548;2024-01-11T11:24:11;101193.75;;;5.59;53.69
32298;BME280;18782;48.984;8.548;2024-01-11T11:26:38;101193.72;;;5.98;52.56
32298;BME280;18782;48.984;8.548;2024-01-11T11:29:06;101195.91;;;5.92;53.19
32298;BME280;18782;48.984;8.548;2024-01-11T11:31:36;101192.69;;;6.23;54.69
32298;BME280;18782;48.984;8.548;2024-01-11T11:34:05;101188.00;;;6.44;52.67
32298;BME280;18782;48.984;8.548;2024-01-11T11:36:33;101191.09;;;6.81;50.77
32298;BME280;18782;48.984;8.548;2024-01-11T11:39:02;101183.66;;;6.71;50.54
32298;BME280;18782;48.984;8.548;2024-01-11T11:41:30;101185.97;;;6.81;49.13
32298;BME280;18782;48.984;8.548;2024-01-11T11:44:00;101168.16;;;6.83;49.91
32298;BME280;18782;48.984;8.548;2024-01-11T11:46:28;101171.72;;;6.57;49.03
32298;BME280;18782;48.984;8.548;2024-01-11T11:48:57;101173.78;;;6.77;49.26
32298;BME280;18782;48.984;8.548;2024-01-11T11:51:27;101166.28;;;6.65;49.49
32298;BME280;18782;48.984;8.548;2024-01-11T11:53:57;101165.47;;;6.66;49.97
32298;BME280;18782;48.984;8.548;2024-01-11T11:56:24;101154.13;;;6.76;48.81
32298;BME280;18782;48.984;8.548;2024-01-11T11:58:53;101155.44;;;6.99;49.17
32298;BME280;18782;48.984;8.548;2024-01-11T12:01:22;101137.44;;;6.97;48.96
32298;BME280;18782;48.984;8.548;2024-01-11T12:03:50;101131.44;;;7.12;47.88
32298;BME280;18782;48.984;8.548;2024-01-11T12:06:19;101128.09;;;7.13;47.89
32298;BME280;18782;48.984;8.548;2024-01-11T12:08:48;101141.41;;;7.22;48.14
32298;BME280;18782;48.984;8.548;2024-01-11T12:11:19;101140.97;;;7.29;47.62
32298;BME280;18782;48.984;8.548;2024-01-11T12:13:49;101137.97;;;7.21;47.42
32298;BME280;18782;48.984;8.548;2024-01-11T12:16:17;101139.44;;;7.47;46.86
32298;BME280;18782;48.984;8.548;2024-01-11T12:18:44;101138.41;;;7.29;47.61
32298;BME280;18782;48.984;8.548;2024-01-11T12:21:12;101128.50;;;7.35;47.51
32298;BME280;18782;48.984;8.548;2024-01-11T12:23:43;101135.75;;;7.73;46.71
32298;BME280;18782;48.984;8.548;2024-01-11T12:26:13;101130.88;;;8.25;45.52
32298;BME280;18782;48.984;8.548;2024-01-11T12:28:42;101122.56;;;8.46;44.84
32298;BME280;18782;48.984;8.548;2024-01-11T12:31:11;101119.03;;;7.96;45.64
32298;BME280;18782;48.984;8.548;2024-01-11T12:33:40;101108.66;;;8.26;45.40
32298;BME280;18782;48.984;8.548;2024-01-11T12:36:09;101124.88;;;8.41;44.97
32298;BME280;18782;48.984;8.548;2024-01-11T12:38:37;101122.25;;;8.08;45.73
32298;BME280;18782;48.984;8.548;2024-01-11T12:41:06;101125.94;;;8.30;45.52
32298;BME280;18782;48.984;8.548;2024-01-11T12:43:36;101117.31;;;8.60;44.77
32298;BME280;18782;48.984;8.548;2024-01-11T12:46:04;101114.25;;;8.68;44.97
32298;BME280;18782;48.984;8.548;2024-01-11T12:48:31;101106.91;;;8.57;44.96
32298;BME280;18782;48.984;8.548;2024-01-11T12:50:59;101097.97;;;8.67;44.29